Time;durP1;ratioP1;P1;durP2;ratioP2;P2;SDS_P1;SDS_P2;PMS_P1;PMS_P2;Temp;Humidity;BMP_temperature;BMP_pressure;BME280_temperature;BME280_humidity;BME280_pressure;Samples;Min_cycle;Max_cycle;Signal;HPM_P1;HPM_P2
2022/06/10 00:00:28;;;;;;;6.90;2.78;;;16.30;99.90;;;;;;5090421;28;20375;-59
2022/06/10 00:02:54;;;;;;;6.65;2.70;;;16.30;99.90;;;;;;5089221;28;20564;-54
2022/06/10 00:05:24;;;;;;;8.13;3.20;;;16.20;99.90;;;;;;5089035;28;20381;-56
2022/06/10 00:07:51;;;;;;;5.18;2.70;;;16.00;99.90;;;;;;5090521;28;20790;-56
2022/06/10 00:10:20;;;;;;;10.50;3.47;;;15.90;99.90;;;;;;5091911;28;20443;-59
2022/06/10 00:12:47;;;;;;;10.60;3.90;;;15.80;99.90;;;;;;5091615;28;20385;-55
2022/06/10 00:15:14;;;;;;;6.33;3.13;;;15.70;99.90;;;;;;5091384;28;20502;-57
2022/06/10 00:17:39;;;;;;;5.28;3.20;;;15.70;99.90;;;;;;5090880;28;20600;-57
2022/06/10 00:20:06;;;;;;;9.02;3.53;;;15.80;99.90;;;;;;5088493;28;20447;-57
2022/06/10 00:22:32;;;;;;;9.13;3.40;;;15.90;99.90;;;;;;5088572;28;20382;-58
2022/06/10 00:24:58;;;;;;;8.00;3.28;;;15.90;99.90;;;;;;5090135;28;20427;-57
2022/06/10 00:27:23;;;;;;;8.47;3.20;;;15.90;99.90;;;;;;5091845;28;20416;-58
2022/06/10 00:29:49;;;;;;;10.90;4.00;;;15.80;99.90;;;;;;5090775;28;20865;-58
2022/06/10 00:32:17;;;;;;;7.95;3.50;;;15.70;99.90;;;;;;5091316;28;20413;-58
2022/06/10 00:34:43;;;;;;;10.73;3.72;;;15.70;99.90;;;;;;5072823;28;20406;-58
2022/06/10 00:37:08;;;;;;;10.38;3.60;;;15.60;99.90;;;;;;5089491;28;20447;-56
2022/06/10 00:39:34;;;;;;;8.10;3.60;;;15.50;99.90;;;;;;5089412;28;20382;-56
2022/06/10 00:42:01;;;;;;;8.20;3.30;;;15.60;99.90;;;;;;5088317;28;20630;-57
2022/06/10 00:44:43;;;;;;;9.23;3.53;;;15.50;99.90;;;;;;5088765;28;20560;-57
2022/06/10 00:47:19;;;;;;;7.10;3.22;;;15.50;99.90;;;;;;5089999;28;20834;-57
2022/06/10 00:49:57;;;;;;;7.70;2.85;;;15.60;99.90;;;;;;5089072;28;20480;-57
2022/06/10 00:52:35;;;;;;;8.98;3.55;;;15.60;99.90;;;;;;5090392;28;20386;-58
2022/06/10 00:55:03;;;;;;;8.00;3.40;;;15.60;99.90;;;;;;5091603;28;20406;-59
2022/06/10 00:57:38;;;;;;;8.33;3.20;;;15.60;99.90;;;;;;5093482;28;20539;-57
2022/06/10 01:00:03;;;;;;;7.18;3.05;;;15.60;99.90;;;;;;5094455;28;20527;-59
2022/06/10 01:02:31;;;;;;;8.13;3.10;;;15.50;99.90;;;;;;5091804;28;21219;-58
2022/06/10 01:04:59;;;;;;;8.30;3.00;;;15.60;99.90;;;;;;5092783;28;20742;-58
2022/06/10 01:07:30;;;;;;;7.95;2.92;;;15.60;99.90;;;;;;5091683;28;20793;-59
2022/06/10 01:09:57;;;;;;;7.22;3.15;;;15.60;99.90;;;;;;5090887;28;20662;-58
2022/06/10 01:12:33;;;;;;;6.28;3.08;;;15.60;99.90;;;;;;5090786;28;20397;-58
2022/06/10 01:15:15;;;;;;;5.60;2.90;;;15.50;99.90;;;;;;5091680;28;20450;-58
2022/06/10 01:17:59;;;;;;;7.75;2.80;;;15.50;99.90;;;;;;5092869;28;20798;-58
2022/06/10 01:20:51;;;;;;;6.72;2.80;;;15.50;99.90;;;;;;5090438;28;20678;-56
2022/06/10 01:23:38;;;;;;;6.70;3.00;;;15.50;99.90;;;;;;5091683;28;20773;-58
2022/06/10 01:26:32;;;;;;;8.55;3.45;;;15.50;99.90;;;;;;5090856;28;20393;-56
2022/06/10 01:29:22;;;;;;;5.75;2.67;;;15.40;99.90;;;;;;5090756;28;20373;-56
2022/06/10 01:31:51;;;;;;;7.57;3.23;;;15.40;99.90;;;;;;5089793;28;20403;-60
2022/06/10 01:34:28;;;;;;;6.88;3.00;;;15.40;99.90;;;;;;5089516;28;20426;-59
2022/06/10 01:37:03;;;;;;;7.90;3.20;;;15.40;99.90;;;;;;5091237;28;20381;-59
2022/06/10 01:39:48;;;;;;;7.82;3.30;;;15.40;99.90;;;;;;5093211;28;20476;-58
2022/06/10 01:42:30;;;;;;;6.90;2.83;;;15.30;99.90;;;;;;5091323;28;20467;-58
2022/06/10 01:45:15;;;;;;;9.50;3.28;;;15.30;99.90;;;;;;5091606;28;20382;-60
2022/06/10 01:47:56;;;;;;;9.13;3.28;;;15.30;99.90;;;;;;5091186;28;20400;-58
2022/06/10 01:50:31;;;;;;;8.90;3.10;;;15.30;99.90;;;;;;5092291;28;20413;-58
2022/06/10 01:53:09;;;;;;;6.30;2.70;;;15.30;99.90;;;;;;5090496;28;20386;-61
2022/06/10 01:56:18;;;;;;;8.68;3.15;;;15.30;99.90;;;;;;5091624;28;20554;-58
2022/06/10 01:58:49;;;;;;;6.07;2.92;;;15.30;99.90;;;;;;5011975;28;20391;-58
2022/06/10 02:01:19;;;;;;;7.10;2.97;;;15.20;99.90;;;;;;5011159;28;20407;-58
2022/06/10 02:03:56;;;;;;;8.23;3.17;;;15.20;99.90;;;;;;5061653;28;20442;-59
2022/06/10 02:06:31;;;;;;;8.38;3.28;;;15.20;99.90;;;;;;5086748;28;20382;-57
2022/06/10 02:09:00;;;;;;;6.97;3.15;;;15.20;99.90;;;;;;5086535;28;20652;-58
2022/06/10 02:11:30;;;;;;;7.35;3.20;;;15.10;99.90;;;;;;5087190;28;20411;-57
2022/06/10 02:14:00;;;;;;;7.57;2.80;;;15.10;99.90;;;;;;5090511;28;20664;-58
2022/06/10 02:16:38;;;;;;;5.28;2.85;;;15.10;99.90;;;;;;5089008;28;20394;-59
2022/06/10 02:19:15;;;;;;;6.93;3.05;;;15.10;99.90;;;;;;5089434;28;20396;-58
2022/06/10 02:21:52;;;;;;;9.10;3.17;;;15.10;99.90;;;;;;5089391;28;20378;-58
2022/06/10 02:24:36;;;;;;;6.38;2.92;;;15.00;99.90;;;;;;5089897;28;20404;-59
2022/06/10 02:27:14;;;;;;;7.40;3.15;;;15.00;99.90;;;;;;5089373;28;20395;-59
2022/06/10 02:29:59;;;;;;;8.52;3.50;;;15.00;99.90;;;;;;5091882;28;20758;-59
2022/06/10 02:32:25;;;;;;;7.68;3.50;;;14.90;99.90;;;;;;5090581;28;20429;-58
2022/06/10 02:34:51;;;;;;;5.70;3.58;;;14.90;99.90;;;;;;5090368;28;20491;-59
2022/06/10 02:37:24;;;;;;;8.55;4.00;;;14.80;99.90;;;;;;5090153;28;20374;-58
2022/06/10 02:39:53;;;;;;;9.63;3.75;;;14.80;99.90;;;;;;5089518;28;20393;-59
2022/06/10 02:42:43;;;;;;;7.20;3.72;;;14.80;99.90;;;;;;5090036;28;20384;-59
2022/06/10 02:45:26;;;;;;;9.07;3.50;;;14.80;99.90;;;;;;5088712;28;20778;-59
2022/06/10 02:48:04;;;;;;;8.23;3.70;;;14.70;99.90;;;;;;5091292;28;20390;-58
2022/06/10 02:50:29;;;;;;;6.40;3.63;;;14.70;99.90;;;;;;5089757;28;20809;-59
2022/06/10 02:52:56;;;;;;;7.68;3.50;;;14.70;99.90;;;;;;5088343;28;20386;-59
2022/06/10 02:55:25;;;;;;;8.25;3.53;;;14.70;99.90;;;;;;5088547;28;20444;-58
2022/06/10 03:01:26;;;;;;;10.50;3.97;;;14.70;99.90;;;;;;5090683;28;20381;-58
2022/06/10 03:04:13;;;;;;;7.38;3.92;;;14.60;99.90;;;;;;5089532;28;20488;-58
2022/06/10 03:07:21;;;;;;;9.13;4.40;;;14.60;99.90;;;;;;5090069;28;20827;-57
2022/06/10 03:10:19;;;;;;;11.73;4.53;;;14.60;99.90;;;;;;5060135;28;20446;-58
2022/06/10 03:13:23;;;;;;;10.48;4.70;;;14.60;99.90;;;;;;5089953;28;20386;-59
2022/06/10 03:16:01;;;;;;;9.57;4.65;;;14.60;99.90;;;;;;5086711;28;20529;-58
2022/06/10 03:18:54;;;;;;;9.93;4.78;;;14.60;99.90;;;;;;5090036;28;20651;-58
2022/06/10 03:21:38;;;;;;;13.75;5.40;;;14.50;99.90;;;;;;5092016;28;20535;-60
2022/06/10 03:24:26;;;;;;;8.77;4.35;;;14.50;99.90;;;;;;5090398;28;20374;-57
2022/06/10 03:26:55;;;;;;;8.73;4.65;;;14.60;99.90;;;;;;5089869;28;20386;-59
2022/06/10 03:29:28;;;;;;;13.87;5.50;;;14.60;99.90;;;;;;5090500;28;20452;-59
2022/06/10 03:32:03;;;;;;;8.23;4.72;;;14.50;99.90;;;;;;5092185;28;20390;-59
2022/06/10 03:35:08;;;;;;;14.23;5.50;;;14.50;99.90;;;;;;5091745;28;20420;-59
2022/06/10 03:37:37;;;;;;;11.75;5.53;;;14.50;99.90;;;;;;5069393;28;20395;-58
2022/06/10 03:40:04;;;;;;;9.90;5.10;;;14.40;99.90;;;;;;5091715;28;20700;-59
2022/06/10 03:42:30;;;;;;;9.02;5.03;;;14.30;99.90;;;;;;5092930;28;20560;-57
2022/06/10 03:44:58;;;;;;;9.15;5.07;;;14.30;99.90;;;;;;5091850;28;20528;-58
2022/06/10 03:47:31;;;;;;;9.88;5.22;;;14.30;99.90;;;;;;5089588;28;20401;-58
2022/06/10 03:50:02;;;;;;;7.37;4.60;;;14.40;99.90;;;;;;5089408;28;20409;-58
2022/06/10 03:52:32;;;;;;;10.30;5.40;;;14.40;99.90;;;;;;5089067;28;20378;-57
2022/06/10 03:54:57;;;;;;;11.70;5.60;;;14.50;99.90;;;;;;5089285;28;20398;-56
2022/06/10 03:57:23;;;;;;;13.65;5.90;;;14.40;99.90;;;;;;5088330;28;20382;-58
2022/06/10 03:59:49;;;;;;;12.33;5.73;;;14.30;99.90;;;;;;5087604;28;20689;-56
2022/06/10 04:02:15;;;;;;;14.15;6.15;;;14.20;99.90;;;;;;5088555;28;20909;-57
2022/06/10 04:04:45;;;;;;;12.65;5.30;;;14.10;99.90;;;;;;5091571;28;20393;-59
2022/06/10 04:07:13;;;;;;;11.07;5.07;;;14.10;99.90;;;;;;5089895;28;20664;-59
2022/06/10 04:09:39;;;;;;;10.00;5.47;;;14.00;99.90;;;;;;5089227;28;20382;-59
2022/06/10 04:12:05;;;;;;;13.57;5.38;;;14.00;99.90;;;;;;5087083;28;20398;-57
2022/06/10 04:14:31;;;;;;;10.73;5.13;;;14.00;99.90;;;;;;5086011;28;20406;-58
2022/06/10 04:16:57;;;;;;;13.90;5.32;;;14.00;99.90;;;;;;5082880;28;20400;-59
2022/06/10 04:19:23;;;;;;;9.70;5.30;;;14.00;99.90;;;;;;5083764;28;20856;-59
2022/06/10 04:21:49;;;;;;;10.38;5.25;;;13.90;99.90;;;;;;5082403;28;20459;-59
2022/06/10 04:24:15;;;;;;;12.55;5.30;;;13.80;99.90;;;;;;5083012;28;20410;-55
2022/06/10 04:26:41;;;;;;;13.33;5.80;;;13.80;99.90;;;;;;5084683;28;20674;-59
2022/06/10 04:29:06;;;;;;;10.80;5.30;;;13.80;99.90;;;;;;5082571;28;20822;-59
2022/06/10 04:31:32;;;;;;;12.35;5.63;;;13.80;99.90;;;;;;5084663;28;20394;-58
2022/06/10 04:33:57;;;;;;;10.53;5.20;;;13.90;99.90;;;;;;5087903;28;20535;-58
2022/06/10 04:36:23;;;;;;;11.80;5.00;;;14.00;99.90;;;;;;5088126;28;20385;-59
2022/06/10 04:38:49;;;;;;;12.95;5.82;;;14.00;99.90;;;;;;5086842;28;20433;-59
2022/06/10 04:41:14;;;;;;;10.63;5.72;;;14.00;99.90;;;;;;5087515;28;20378;-58
2022/06/10 04:43:41;;;;;;;10.73;5.70;;;13.90;99.90;;;;;;5084393;28;20386;-59
2022/06/10 04:46:08;;;;;;;14.43;6.43;;;13.90;99.90;;;;;;5086502;28;20778;-59
2022/06/10 04:48:34;;;;;;;12.25;5.88;;;14.00;99.90;;;;;;5085267;28;20437;-57
2022/06/10 04:51:01;;;;;;;9.07;5.43;;;14.00;99.90;;;;;;5086168;28;20672;-58
2022/06/10 04:53:26;;;;;;;10.68;5.45;;;14.10;99.90;;;;;;5083907;28;20451;-57
2022/06/10 04:55:52;;;;;;;12.15;5.45;;;14.10;99.90;;;;;;5086052;28;20389;-58
2022/06/10 04:58:18;;;;;;;9.43;5.50;;;14.10;99.90;;;;;;5081753;28;20663;-59
2022/06/10 05:00:48;;;;;;;11.20;5.30;;;14.10;99.90;;;;;;5081993;28;20390;-59
2022/06/10 05:03:15;;;;;;;13.40;5.43;;;14.10;99.90;;;;;;5085725;28;20524;-58
2022/06/10 05:05:42;;;;;;;11.10;5.60;;;14.20;99.90;;;;;;5085891;28;20398;-59
2022/06/10 05:08:10;;;;;;;10.23;5.23;;;14.20;99.90;;;;;;5085928;28;20455;-59
2022/06/10 05:10:36;;;;;;;12.45;5.35;;;14.20;99.90;;;;;;5087752;28;20460;-59
2022/06/10 05:13:03;;;;;;;11.07;4.68;;;14.20;99.90;;;;;;5087611;28;20482;-59
2022/06/10 05:15:29;;;;;;;10.95;4.97;;;14.30;99.90;;;;;;5086319;28;20394;-56
2022/06/10 05:17:56;;;;;;;14.75;4.88;;;14.30;99.90;;;;;;5085648;28;20444;-57
2022/06/10 05:20:29;;;;;;;9.77;4.40;;;14.30;99.90;;;;;;5084728;28;20431;-58
2022/06/10 05:22:54;;;;;;;11.25;4.65;;;14.40;99.90;;;;;;5083296;28;20408;-59
2022/06/10 05:25:20;;;;;;;10.65;4.78;;;14.50;99.90;;;;;;5083018;28;20522;-59
2022/06/10 05:27:46;;;;;;;13.82;4.50;;;14.50;99.90;;;;;;5082247;28;20697;-59
2022/06/10 05:30:24;;;;;;;11.50;4.40;;;14.50;99.90;;;;;;5081621;28;20424;-59
2022/06/10 05:32:50;;;;;;;12.88;4.10;;;14.60;99.90;;;;;;5084623;28;20526;-58
2022/06/10 05:35:17;;;;;;;7.20;3.40;;;14.70;99.90;;;;;;5085469;28;20421;-56
2022/06/10 05:37:42;;;;;;;10.60;4.30;;;14.80;99.90;;;;;;5085992;28;20762;-57
2022/06/10 05:40:11;;;;;;;10.33;4.37;;;14.90;99.90;;;;;;5085556;28;20415;-56
2022/06/10 05:42:37;;;;;;;10.30;3.83;;;14.90;99.90;;;;;;5081172;28;20379;-59
2022/06/10 05:45:02;;;;;;;10.85;3.80;;;15.00;99.90;;;;;;5083215;28;20396;-59
2022/06/10 05:47:31;;;;;;;9.68;3.90;;;15.10;99.90;;;;;;5084749;28;20408;-59
2022/06/10 05:49:58;;;;;;;9.95;3.95;;;15.10;99.90;;;;;;5083553;28;20386;-59
2022/06/10 05:52:27;;;;;;;13.25;3.47;;;15.20;99.90;;;;;;5081678;28;20392;-58
2022/06/10 05:54:55;;;;;;;12.85;3.80;;;15.20;99.90;;;;;;5082288;28;20479;-57
2022/06/10 05:57:21;;;;;;;11.20;2.80;;;15.30;99.90;;;;;;5081022;28;20382;-59
2022/06/10 05:59:47;;;;;;;10.17;3.43;;;15.40;99.90;;;;;;5080989;28;20385;-58
2022/06/10 06:02:14;;;;;;;11.00;3.27;;;15.50;99.90;;;;;;5078826;28;20414;-58
2022/06/10 06:04:40;;;;;;;6.68;2.25;;;15.60;99.90;;;;;;5077179;28;20553;-58
2022/06/10 06:07:06;;;;;;;8.70;3.08;;;15.60;99.90;;;;;;5077386;28;20690;-58
2022/06/10 06:09:33;;;;;;;12.68;3.25;;;15.70;99.90;;;;;;5075907;28;20489;-58
2022/06/10 06:11:59;;;;;;;9.43;2.80;;;15.80;99.90;;;;;;5077220;28;20640;-57
2022/06/10 06:14:26;;;;;;;10.25;2.65;;;15.80;99.90;;;;;;5078444;28;20659;-57
2022/06/10 06:16:59;;;;;;;10.63;2.55;;;15.90;99.90;;;;;;5076423;28;20390;-58
2022/06/10 06:19:26;;;;;;;9.73;2.85;;;16.00;99.90;;;;;;5077131;28;20530;-58
2022/06/10 06:21:52;;;;;;;10.32;2.58;;;16.00;99.90;;;;;;5078344;28;20801;-58
2022/06/10 06:24:18;;;;;;;7.37;2.20;;;16.10;99.90;;;;;;5076433;28;20472;-57
2022/06/10 06:26:44;;;;;;;7.70;2.40;;;16.20;99.90;;;;;;5076210;28;20848;-58
2022/06/10 06:29:10;;;;;;;7.60;2.33;;;16.30;99.90;;;;;;5078319;28;20657;-54
2022/06/10 06:31:36;;;;;;;7.45;2.28;;;16.30;99.90;;;;;;5076586;28;20402;-58
2022/06/10 06:34:01;;;;;;;8.00;2.20;;;16.40;99.90;;;;;;5077242;28;20406;-56
2022/06/10 06:36:31;;;;;;;7.03;2.08;;;16.40;99.90;;;;;;5079184;28;20917;-55
2022/06/10 06:38:57;;;;;;;10.27;2.38;;;16.50;99.90;;;;;;5075583;28;20388;-57
2022/06/10 06:41:23;;;;;;;6.53;2.00;;;16.60;99.90;;;;;;5075965;28;20758;-58
2022/06/10 06:43:49;;;;;;;6.22;2.13;;;16.60;99.90;;;;;;5072750;28;20381;-57
2022/06/10 06:46:18;;;;;;;8.32;2.03;;;16.70;99.90;;;;;;5072683;28;20401;-57
2022/06/10 06:48:44;;;;;;;6.57;1.88;;;16.70;99.90;;;;;;5071517;28;20413;-57
2022/06/10 06:51:10;;;;;;;6.85;1.98;;;16.80;99.90;;;;;;5070284;28;20382;-58
2022/06/10 06:53:36;;;;;;;8.25;2.22;;;16.80;99.90;;;;;;5073626;28;20468;-58
2022/06/10 06:56:04;;;;;;;6.93;1.83;;;16.90;99.90;;;;;;5076359;28;20382;-58
2022/06/10 06:58:32;;;;;;;8.38;2.15;;;16.90;99.90;;;;;;5078733;28;20367;-57
2022/06/10 07:00:57;;;;;;;7.13;2.10;;;16.90;99.90;;;;;;5077007;28;20854;-57
2022/06/10 07:03:23;;;;;;;4.83;1.70;;;17.00;99.90;;;;;;5076872;28;20398;-57
2022/06/10 07:05:49;;;;;;;6.33;2.10;;;17.10;99.90;;;;;;5077817;28;20975;-56
2022/06/10 07:08:17;;;;;;;7.53;2.13;;;17.10;99.90;;;;;;5079235;28;20377;-59
2022/06/10 07:10:43;;;;;;;5.75;1.85;;;17.20;99.90;;;;;;5081547;28;20604;-59
2022/06/10 07:13:09;;;;;;;8.15;2.10;;;17.30;99.90;;;;;;5080754;28;20859;-58
2022/06/10 07:15:37;;;;;;;6.70;2.38;;;17.30;99.90;;;;;;5081078;28;20467;-58
2022/06/10 07:18:03;;;;;;;9.07;2.53;;;17.30;99.90;;;;;;5085143;28;20386;-59
2022/06/10 07:20:32;;;;;;;8.38;2.38;;;17.30;99.90;;;;;;5085865;28;20385;-58
2022/06/10 07:23:01;;;;;;;5.47;2.03;;;17.40;99.90;;;;;;5083327;28;20452;-59
2022/06/10 07:25:29;;;;;;;11.20;2.25;;;17.40;99.90;;;;;;5084587;28;20741;-59
2022/06/10 07:27:55;;;;;;;5.93;1.90;;;17.40;99.90;;;;;;5083003;28;20457;-58
2022/06/10 07:30:24;;;;;;;4.65;1.60;;;17.50;99.90;;;;;;5083624;28;20438;-59
2022/06/10 07:32:50;;;;;;;8.57;2.10;;;17.50;99.90;;;;;;5081109;28;20760;-57
2022/06/10 07:35:17;;;;;;;6.87;1.97;;;17.60;99.90;;;;;;5079967;28;20492;-58
2022/06/10 07:37:42;;;;;;;6.50;2.00;;;17.60;99.90;;;;;;5081229;28;20488;-59
2022/06/10 07:41:56;;;;;;;6.28;1.90;;;17.60;99.90;;;;;;5077585;28;20369;-59
2022/06/10 07:42:54;;;;;;;5.22;1.80;;;17.70;99.90;;;;;;5078646;28;20767;-59
2022/06/10 07:45:20;;;;;;;5.23;2.20;;;17.80;99.90;;;;;;5077303;28;20669;-57
2022/06/10 07:47:45;;;;;;;7.45;2.10;;;17.80;99.90;;;;;;5078547;28;21071;-59
2022/06/10 07:50:11;;;;;;;6.23;1.90;;;17.90;99.90;;;;;;5078473;28;20891;-59
2022/06/10 07:52:37;;;;;;;6.82;1.85;;;18.00;99.90;;;;;;5077400;28;20393;-59
2022/06/10 07:55:03;;;;;;;7.13;2.05;;;18.00;99.90;;;;;;5077463;28;20398;-58
2022/06/10 07:57:29;;;;;;;6.83;2.07;;;18.10;99.90;;;;;;5077479;28;20462;-59
2022/06/10 07:59:55;;;;;;;8.27;2.20;;;18.10;99.90;;;;;;5079241;28;20657;-56
2022/06/10 08:02:20;;;;;;;9.63;2.08;;;18.10;99.90;;;;;;5077788;28;20475;-59
2022/06/10 08:04:46;;;;;;;8.63;2.20;;;18.20;99.90;;;;;;5056642;28;20389;-57
2022/06/10 08:07:12;;;;;;;6.53;1.85;;;18.20;99.90;;;;;;5074863;28;20443;-59
2022/06/10 08:09:37;;;;;;;6.90;2.00;;;18.20;99.90;;;;;;5059347;28;20401;-58
2022/06/10 08:12:03;;;;;;;7.97;2.20;;;18.30;99.90;;;;;;5061125;28;20647;-59
2022/06/10 08:14:29;;;;;;;6.27;1.80;;;18.30;99.90;;;;;;5062357;28;20413;-59
2022/06/10 08:16:56;;;;;;;6.43;2.20;;;18.40;99.90;;;;;;5085406;28;20417;-57
2022/06/10 08:19:22;;;;;;;5.75;1.65;;;18.30;99.90;;;;;;5067813;28;20956;-57
2022/06/10 08:24:32;;;;;;;6.13;1.83;;;18.40;99.90;;;;;;5085627;28;20659;-59
2022/06/10 08:26:57;;;;;;;6.85;1.60;;;18.40;99.90;;;;;;5068936;28;20741;-59
2022/06/10 08:29:23;;;;;;;6.83;2.00;;;18.50;99.90;;;;;;5069587;28;20404;-59
2022/06/10 08:31:48;;;;;;;6.83;2.17;;;18.60;99.90;;;;;;5070376;28;20999;-58
2022/06/10 08:34:14;;;;;;;9.00;2.03;;;18.60;99.90;;;;;;5069607;28;20409;-58
2022/06/10 08:36:41;;;;;;;4.17;1.63;;;18.60;99.90;;;;;;5070270;28;20398;-59
2022/06/10 08:39:07;;;;;;;6.40;2.15;;;18.70;99.90;;;;;;5069224;28;21019;-58
2022/06/10 08:41:58;;;;;;;6.50;1.60;;;18.80;99.90;;;;;;5070287;28;20382;-59
2022/06/10 08:44:32;;;;;;;5.68;1.65;;;19.00;99.90;;;;;;5069000;28;20378;-58
2022/06/10 08:47:14;;;;;;;6.20;2.25;;;18.90;99.90;;;;;;5065351;28;20516;-60
2022/06/10 08:49:45;;;;;;;8.47;2.13;;;19.00;99.90;;;;;;5062873;28;20378;-59
2022/06/10 08:52:29;;;;;;;7.05;2.20;;;19.10;99.90;;;;;;5059929;28;20389;-57
2022/06/10 08:55:36;;;;;;;7.60;2.30;;;19.10;99.90;;;;;;5078883;28;20716;-59
2022/06/10 08:58:12;;;;;;;6.17;2.00;;;19.10;99.90;;;;;;5060864;28;20378;-59
2022/06/10 09:00:40;;;;;;;7.03;2.17;;;19.20;99.90;;;;;;5060661;28;20474;-59
2022/06/10 09:03:16;;;;;;;6.93;2.92;;;19.20;99.90;;;;;;5069055;28;20420;-59
2022/06/10 09:05:56;;;;;;;10.03;2.67;;;19.40;99.90;;;;;;5077842;28;20443;-60
2022/06/10 09:08:28;;;;;;;7.17;2.70;;;19.50;99.90;;;;;;5077696;28;20473;-59
2022/06/10 09:11:26;;;;;;;5.53;2.42;;;19.40;99.90;;;;;;5077644;28;20516;-59
2022/06/10 09:14:04;;;;;;;9.93;2.60;;;19.30;99.90;;;;;;5075936;28;20523;-59
2022/06/10 09:16:51;;;;;;;6.25;2.45;;;19.40;99.90;;;;;;5078081;28;20413;-59
2022/06/10 09:19:22;;;;;;;7.30;2.20;;;19.40;99.90;;;;;;5080447;28;20429;-57
2022/06/10 09:22:00;;;;;;;6.00;2.30;;;19.40;99.90;;;;;;5078839;28;20499;-58
2022/06/10 09:24:33;;;;;;;6.73;2.63;;;19.40;99.90;;;;;;5079283;28;20673;-57
2022/06/10 09:27:13;;;;;;;7.38;2.25;;;19.50;99.90;;;;;;5081687;28;20377;-59
2022/06/10 09:29:40;;;;;;;8.00;2.20;;;19.50;99.90;;;;;;5086418;28;20476;-58
2022/06/10 09:32:06;;;;;;;7.30;2.10;;;19.50;99.90;;;;;;5088520;28;20480;-58
2022/06/10 09:34:53;;;;;;;4.72;2.10;;;19.50;99.90;;;;;;5089629;28;20485;-54
2022/06/10 09:37:42;;;;;;;7.95;2.28;;;19.70;99.90;;;;;;5088506;28;20492;-59
2022/06/10 09:42:57;;;;;;;9.27;2.47;;;19.60;99.90;;;;;;5089532;28;20413;-59
2022/06/10 09:45:34;;;;;;;5.23;2.17;;;19.60;99.90;;;;;;5086213;28;20758;-59
2022/06/10 09:48:18;;;;;;;8.50;2.25;;;19.70;99.90;;;;;;5082236;28;20397;-58
2022/06/10 09:50:51;;;;;;;9.05;2.90;;;19.80;99.90;;;;;;5080408;28;20410;-57
2022/06/10 09:53:41;;;;;;;9.55;2.63;;;19.70;99.90;;;;;;5074613;28;20413;-59
2022/06/10 09:56:32;;;;;;;8.23;2.37;;;19.90;99.90;;;;;;5075417;28;20514;-59
2022/06/10 09:59:05;;;;;;;6.40;2.30;;;20.00;99.90;;;;;;5076331;28;20378;-59
2022/06/10 10:01:44;;;;;;;5.53;2.08;;;20.20;99.90;;;;;;5076136;28;20468;-59
2022/06/10 10:04:29;;;;;;;8.67;2.60;;;20.20;99.90;;;;;;5059384;28;20793;-58
2022/06/10 10:07:05;;;;;;;10.70;2.42;;;20.20;99.90;;;;;;5063571;28;20378;-59
2022/06/10 10:09:56;;;;;;;6.70;2.30;;;20.20;99.90;;;;;;5082270;28;20740;-59
2022/06/10 10:12:34;;;;;;;6.53;2.50;;;20.10;99.90;;;;;;5020559;28;20382;-59
2022/06/10 10:15:05;;;;;;;7.25;2.33;;;20.10;99.90;;;;;;5065229;28;20523;-59
2022/06/10 10:17:59;;;;;;;9.00;2.80;;;20.10;99.90;;;;;;5062079;28;20420;-59
2022/06/10 10:20:52;;;;;;;9.52;2.65;;;20.00;99.90;;;;;;5062342;28;21296;-59
2022/06/10 10:23:31;;;;;;;8.80;2.50;;;20.30;99.90;;;;;;5061801;28;20374;-59
2022/06/10 10:25:57;;;;;;;7.60;2.30;;;20.50;99.90;;;;;;5063734;28;20443;-57
2022/06/10 10:28:31;;;;;;;9.05;2.65;;;20.60;99.90;;;;;;5064155;28;20382;-59
2022/06/10 10:31:03;;;;;;;8.43;2.58;;;20.60;99.90;;;;;;5061544;28;20458;-58
2022/06/10 10:33:29;;;;;;;7.47;2.40;;;20.70;99.90;;;;;;5060960;28;20378;-59
2022/06/10 10:35:57;;;;;;;6.20;2.60;;;20.60;99.90;;;;;;5061114;28;20432;-59
2022/06/10 10:38:33;;;;;;;6.25;2.33;;;20.70;99.90;;;;;;5060601;28;20377;-59
2022/06/10 10:41:10;;;;;;;6.50;2.20;;;20.90;99.90;;;;;;5061694;28;20378;-58
2022/06/10 10:43:36;;;;;;;7.45;2.25;;;20.90;99.90;;;;;;5063697;28;20417;-59
2022/06/10 10:46:21;;;;;;;6.93;2.55;;;21.10;99.90;;;;;;5061945;28;20455;-58
2022/06/10 10:48:48;;;;;;;6.13;2.40;;;21.00;99.90;;;;;;5063675;28;20378;-59
2022/06/10 10:51:13;;;;;;;8.43;2.33;;;21.10;99.90;;;;;;5063345;28;20383;-57
2022/06/10 10:53:54;;;;;;;6.70;2.10;;;21.10;99.90;;;;;;5062831;28;20491;-57
2022/06/10 10:56:30;;;;;;;7.45;2.17;;;21.10;99.90;;;;;;5080715;28;20382;-59
2022/06/10 10:58:57;;;;;;;10.60;2.47;;;21.30;99.90;;;;;;5060674;28;20389;-59
2022/06/10 11:01:43;;;;;;;5.43;2.13;;;21.30;99.90;;;;;;5061097;28;20483;-59
2022/06/10 11:04:40;;;;;;;6.53;2.20;;;21.40;99.90;;;;;;5060445;28;20671;-58
2022/06/10 11:07:16;;;;;;;7.75;2.25;;;21.40;99.90;;;;;;5074176;28;20502;-57
2022/06/10 11:09:51;;;;;;;7.00;2.17;;;21.50;99.90;;;;;;5058685;28;20642;-59
2022/06/10 11:12:20;;;;;;;7.05;2.28;;;21.40;99.90;;;;;;5059768;28;20787;-59
2022/06/10 11:14:49;;;;;;;5.88;2.08;;;21.20;99.90;;;;;;5059895;28;20398;-57
2022/06/10 11:17:20;;;;;;;6.78;2.22;;;21.10;99.90;;;;;;5059616;28;20507;-58
2022/06/10 11:20:16;;;;;;;7.47;2.13;;;21.10;99.90;;;;;;5058494;28;20514;-59
2022/06/10 11:22:44;;;;;;;5.28;2.00;;;21.00;99.90;;;;;;5057782;28;20389;-57
2022/06/10 11:25:14;;;;;;;8.70;2.25;;;20.90;99.90;;;;;;5056151;28;20427;-59
2022/06/10 11:27:50;;;;;;;6.80;2.30;;;21.00;99.90;;;;;;5056500;28;20738;-59
2022/06/10 11:30:18;;;;;;;6.03;2.13;;;21.10;99.90;;;;;;5051656;28;20379;-59
2022/06/10 11:32:56;;;;;;;3.95;1.83;;;21.20;99.90;;;;;;5069550;28;20674;-57
2022/06/10 11:35:37;;;;;;;6.10;2.15;;;21.30;99.90;;;;;;5050233;28;20633;-59
2022/06/10 11:38:17;;;;;;;6.43;2.15;;;21.50;99.90;;;;;;5067204;28;20377;-58
2022/06/10 11:40:51;;;;;;;5.53;2.22;;;21.70;99.90;;;;;;5071545;28;20481;-59
2022/06/10 11:43:22;;;;;;;6.22;2.60;;;21.80;99.90;;;;;;5073817;28;20450;-55
2022/06/10 11:45:51;;;;;;;6.78;2.20;;;21.80;99.90;;;;;;5059053;28;20414;-58
2022/06/10 11:48:30;;;;;;;5.07;2.20;;;22.10;99.90;;;;;;5059731;28;20409;-59
2022/06/10 11:51:09;;;;;;;8.90;2.28;;;22.30;99.90;;;;;;5060374;28;20485;-59
2022/06/10 11:53:56;;;;;;;6.68;2.30;;;22.50;99.90;;;;;;5061844;28;20411;-59
2022/06/10 11:59:42;;;;;;;5.47;1.83;;;22.50;99.90;;;;;;5087741;28;20417;-56
2022/06/10 12:02:15;;;;;;;5.70;2.10;;;22.50;99.90;;;;;;5073841;28;20446;-58
2022/06/10 12:04:45;;;;;;;6.88;2.28;;;22.60;99.90;;;;;;5086185;28;20414;-58
2022/06/10 12:07:17;;;;;;;6.25;2.13;;;22.50;99.90;;;;;;5087184;28;20388;-58
2022/06/10 12:09:51;;;;;;;7.50;1.85;;;22.30;99.90;;;;;;5088555;28;20376;-58
2022/06/10 12:12:28;;;;;;;4.38;1.67;;;22.30;99.90;;;;;;5088435;28;20382;-57
2022/06/10 12:14:58;;;;;;;6.72;2.03;;;22.40;99.90;;;;;;5087270;28;20451;-56
2022/06/10 12:17:45;;;;;;;7.05;1.77;;;22.40;99.90;;;;;;5082181;28;20454;-56
2022/06/10 12:20:30;;;;;;;5.00;1.85;;;22.20;99.90;;;;;;5084470;28;20393;-58
2022/06/10 12:22:59;;;;;;;4.35;1.70;;;22.20;99.90;;;;;;5083021;28;20382;-62
2022/06/10 12:25:43;;;;;;;5.13;1.70;;;22.30;99.90;;;;;;5081658;28;20374;-57
2022/06/10 12:28:16;;;;;;;4.90;1.47;;;22.30;99.90;;;;;;5082106;28;20413;-58
2022/06/10 12:30:50;;;;;;;4.55;2.10;;;22.40;99.90;;;;;;5083970;28;20991;-58
2022/06/10 12:33:24;;;;;;;7.60;2.40;;;22.50;99.90;;;;;;5085994;28;20393;-58
2022/06/10 12:35:53;;;;;;;4.65;1.92;;;22.50;99.90;;;;;;5086406;28;20412;-57
2022/06/10 12:38:30;;;;;;;7.95;2.30;;;22.70;99.90;;;;;;5086822;28;20531;-58
2022/06/10 12:41:15;;;;;;;7.43;2.42;;;22.80;99.90;;;;;;5087858;28;20603;-58
2022/06/10 12:43:53;;;;;;;5.68;2.30;;;22.70;99.90;;;;;;5086612;28;20466;-58
2022/06/10 12:46:48;;;;;;;6.35;2.10;;;22.40;99.90;;;;;;5087010;28;20719;-58
2022/06/10 12:49:31;;;;;;;5.60;2.58;;;22.30;99.90;;;;;;5086741;28;20382;-58
2022/06/10 12:52:07;;;;;;;7.60;2.58;;;22.30;99.90;;;;;;5085756;28;20473;-57
2022/06/10 12:54:54;;;;;;;4.35;2.45;;;22.20;99.90;;;;;;5087882;28;20409;-57
2022/06/10 12:57:32;;;;;;;9.40;2.83;;;22.20;99.90;;;;;;5088304;28;20374;-58
2022/06/10 13:00:22;;;;;;;5.25;2.50;;;22.30;99.90;;;;;;5087620;28;20481;-58
2022/06/10 13:03:08;;;;;;;7.18;2.92;;;22.40;99.90;;;;;;5085669;28;20482;-57
2022/06/10 13:05:33;;;;;;;5.27;2.33;;;22.40;99.90;;;;;;5083575;28;20386;-59
2022/06/10 13:07:59;;;;;;;5.97;2.47;;;22.50;99.90;;;;;;5082876;28;20386;-58
2022/06/10 13:10:28;;;;;;;6.80;2.80;;;22.50;99.90;;;;;;5084260;28;20382;-56
2022/06/10 13:13:18;;;;;;;7.50;2.97;;;22.50;99.90;;;;;;5082487;28;20389;-55
2022/06/10 13:15:44;;;;;;;6.63;2.65;;;22.40;99.90;;;;;;5080614;28;20406;-58
2022/06/10 13:18:31;;;;;;;5.93;2.25;;;22.40;99.90;;;;;;5082199;28;20382;-58
2022/06/10 13:21:09;;;;;;;5.32;1.85;;;22.30;99.90;;;;;;5083300;28;20379;-56
2022/06/10 13:23:48;;;;;;;4.45;1.92;;;22.30;99.90;;;;;;5084868;28;20388;-58
2022/06/10 13:26:17;;;;;;;5.60;1.60;;;22.10;99.90;;;;;;5082350;28;20685;-58